Orbital elements of YAOGAN-31 02B
| Launched | 28 January 2021 |
| Flight ended | – |
| Launch site | Jiuquan Space Center, PRC |
| Owner | People's Republic of China |
| NORAD ID | 47533 |
| Date fetched |
Epoch osculation |
Inc. [°] |
Ecc. | RA asc node [hr] |
Arg Peri. [°] |
Mean anom [°] |
Mean motion [rev/day] |
Abs. mag |
| Date fetched |
Epoch osculation |
Inc. [°] |
Ecc. | RA asc node [hr] |
Arg Peri. [°] |
Mean anom [°] |
Mean motion [rev/day] |
Abs. mag |
| 2026 May 07 17:58 | 2026 May 07 07:33:04 | 63.4038 | 0.01728 | 16.4776 | 0.5443 | 359.5740 | 13.45445 | – |
| 2026 May 06 17:57 | 2026 May 06 11:55:46 | 63.4039 | 0.01727 | 16.6177 | 0.5435 | 359.5740 | 13.45445 | – |
| 2026 May 05 17:57 | 2026 May 05 12:44:24 | 63.4038 | 0.01726 | 16.7832 | 0.5404 | 359.5740 | 13.45445 | – |
| 2026 May 04 17:57 | 2026 May 04 11:46:01 | 63.4038 | 0.01726 | 16.9615 | 0.5434 | 359.5740 | 13.45445 | – |
| 2026 May 03 17:57 | 2026 May 03 12:34:39 | 63.4035 | 0.01725 | 17.1270 | 0.5459 | 359.5740 | 13.45445 | – |
| 2026 May 02 17:57 | 2026 May 02 13:23:17 | 63.4031 | 0.01724 | 17.2926 | 0.5439 | 359.5740 | 13.45445 | – |
| 2026 May 01 17:56 | 2026 May 01 12:24:54 | 63.4030 | 0.01723 | 17.4709 | 0.5465 | 359.5740 | 13.45445 | – |
| 2026 Apr 30 17:56 | 2026 Apr 30 13:13:32 | 63.4028 | 0.01722 | 17.6364 | 0.5426 | 359.5740 | 13.45445 | – |
| 2026 Apr 29 17:57 | 2026 Apr 29 12:15:09 | 63.4028 | 0.01721 | 17.8147 | 0.5422 | 359.5740 | 13.45445 | – |
| 2026 Apr 28 17:56 | 2026 Apr 28 13:03:47 | 63.4028 | 0.01721 | 17.9803 | 0.5405 | 359.5740 | 13.45445 | – |
| 2026 Apr 27 17:58 | 2026 Apr 27 12:05:24 | 63.4030 | 0.01720 | 18.1586 | 0.5415 | 359.5740 | 13.45445 | – |
| 2026 Apr 26 17:58 | 2026 Apr 26 12:54:02 | 63.4033 | 0.01719 | 18.3241 | 0.5402 | 359.5740 | 13.45445 | – |
| 2026 Apr 25 17:58 | 2026 Apr 25 11:55:39 | 63.4035 | 0.01718 | 18.5024 | 0.5369 | 359.5740 | 13.45445 | – |
| 2026 Apr 24 17:59 | 2026 Apr 24 12:44:18 | 63.4036 | 0.01717 | 18.6679 | 0.5309 | 359.5740 | 13.45445 | – |
| 2026 Apr 23 17:57 | 2026 Apr 23 06:24:49 | 63.4035 | 0.01716 | 18.8844 | 0.5271 | 359.5740 | 13.45445 | – |
| 2026 Apr 22 17:57 | 2026 Apr 22 07:13:28 | 63.4034 | 0.01715 | 19.0499 | 0.5282 | 359.5740 | 13.45445 | – |
| 2026 Apr 21 17:57 | 2026 Apr 21 13:23:11 | 63.4031 | 0.01715 | 19.1773 | 0.5284 | 359.5740 | 13.45445 | – |
| 2026 Apr 20 17:57 | 2026 Apr 20 12:24:47 | 63.4030 | 0.01714 | 19.3556 | 0.5239 | 359.5740 | 13.45445 | – |
| 2026 Apr 19 17:58 | 2026 Apr 19 13:13:26 | 63.4030 | 0.01714 | 19.5212 | 0.5235 | 359.5740 | 13.45445 | – |
| 2026 Apr 18 17:56 | 2026 Apr 18 06:53:58 | 63.4032 | 0.01712 | 19.7377 | 0.5207 | 359.5740 | 13.45445 | – |
| 2026 Apr 16 17:57 | 2026 Apr 16 06:44:12 | 63.4038 | 0.01710 | 20.0815 | 0.5078 | 359.5740 | 13.45445 | – |
| 2026 Apr 14 17:57 | 2026 Apr 14 13:42:34 | 63.4044 | 0.01709 | 20.3744 | 0.4945 | 359.5740 | 13.45445 | – |
| 2026 Apr 13 17:57 | 2026 Apr 13 07:23:06 | 63.4046 | 0.01708 | 20.5909 | 0.4941 | 359.5740 | 13.45445 | – |
| 2026 Apr 12 17:57 | 2026 Apr 12 13:32:49 | 63.4048 | 0.01708 | 20.7182 | 0.4839 | 359.5740 | 13.45445 | – |
| 2026 Apr 11 17:57 | 2026 Apr 11 12:34:25 | 63.4049 | 0.01707 | 20.8965 | 0.4788 | 359.5740 | 13.45445 | – |
| 2026 Apr 10 17:58 | 2026 Apr 10 06:14:57 | 63.4047 | 0.01705 | 21.1129 | 0.4679 | 359.5740 | 13.45445 | – |